sensor_id;sensor_type;location;lat;lon;timestamp;temperature;humidity
24410;DHT22;12543;53.364;-1.504;2023-08-06T00:00:00;11.30;99.90
24410;DHT22;12543;53.364;-1.504;2023-08-06T00:02:27;11.30;99.90
24410;DHT22;12543;53.364;-1.504;2023-08-06T00:04:57;11.30;99.90
24410;DHT22;12543;53.364;-1.504;2023-08-06T00:07:24;11.30;99.90
24410;DHT22;12543;53.364;-1.504;2023-08-06T00:09:51;11.20;99.90
24410;DHT22;12543;53.364;-1.504;2023-08-06T00:12:18;11.20;99.90
24410;DHT22;12543;53.364;-1.504;2023-08-06T00:14:49;11.20;99.90
24410;DHT22;12543;53.364;-1.504;2023-08-06T00:17:16;11.20;99.90
24410;DHT22;12543;53.364;-1.504;2023-08-06T00:19:44;11.20;99.90
24410;DHT22;12543;53.364;-1.504;2023-08-06T00:22:11;11.20;99.90
24410;DHT22;12543;53.364;-1.504;2023-08-06T00:24:38;11.20;99.90
24410;DHT22;12543;53.364;-1.504;2023-08-06T00:27:06;11.20;99.90
24410;DHT22;12543;53.364;-1.504;2023-08-06T00:29:33;11.20;99.90
24410;DHT22;12543;53.364;-1.504;2023-08-06T00:32:00;11.20;99.90
24410;DHT22;12543;53.364;-1.504;2023-08-06T00:34:27;11.20;99.90
24410;DHT22;12543;53.364;-1.504;2023-08-06T00:36:54;11.10;99.90
24410;DHT22;12543;53.364;-1.504;2023-08-06T00:39:21;11.20;99.90
24410;DHT22;12543;53.364;-1.504;2023-08-06T00:41:49;11.20;99.90
24410;DHT22;12543;53.364;-1.504;2023-08-06T00:44:17;11.20;99.90
24410;DHT22;12543;53.364;-1.504;2023-08-06T00:46:44;11.20;99.90
24410;DHT22;12543;53.364;-1.504;2023-08-06T00:49:12;11.20;99.90
24410;DHT22;12543;53.364;-1.504;2023-08-06T00:51:39;11.20;99.90
24410;DHT22;12543;53.364;-1.504;2023-08-06T00:54:06;11.20;99.90
24410;DHT22;12543;53.364;-1.504;2023-08-06T00:56:34;11.20;99.90
24410;DHT22;12543;53.364;-1.504;2023-08-06T00:59:06;11.20;99.90
24410;DHT22;12543;53.364;-1.504;2023-08-06T01:01:34;11.20;99.90
24410;DHT22;12543;53.364;-1.504;2023-08-06T01:04:01;11.20;99.90
24410;DHT22;12543;53.364;-1.504;2023-08-06T01:06:47;11.20;99.90
24410;DHT22;12543;53.364;-1.504;2023-08-06T01:12:42;11.20;99.90
24410;DHT22;12543;53.364;-1.504;2023-08-06T01:17:47;11.20;99.90
24410;DHT22;12543;53.364;-1.504;2023-08-06T01:20:15;11.20;99.90
24410;DHT22;12543;53.364;-1.504;2023-08-06T01:22:42;11.10;99.90
24410;DHT22;12543;53.364;-1.504;2023-08-06T01:25:09;11.20;99.90
24410;DHT22;12543;53.364;-1.504;2023-08-06T01:27:58;11.10;99.90
24410;DHT22;12543;53.364;-1.504;2023-08-06T01:30:31;11.20;99.90
24410;DHT22;12543;53.364;-1.504;2023-08-06T01:33:09;11.10;99.90
24410;DHT22;12543;53.364;-1.504;2023-08-06T01:35:42;11.10;99.90
24410;DHT22;12543;53.364;-1.504;2023-08-06T01:38:10;11.10;99.90
24410;DHT22;12543;53.364;-1.504;2023-08-06T01:40:37;11.10;99.90
24410;DHT22;12543;53.364;-1.504;2023-08-06T01:43:04;11.10;99.90
24410;DHT22;12543;53.364;-1.504;2023-08-06T01:45:31;11.10;99.90
24410;DHT22;12543;53.364;-1.504;2023-08-06T01:47:58;11.10;99.90
24410;DHT22;12543;53.364;-1.504;2023-08-06T01:50:26;11.20;99.90
24410;DHT22;12543;53.364;-1.504;2023-08-06T01:52:53;11.10;99.90
24410;DHT22;12543;53.364;-1.504;2023-08-06T01:55:20;11.10;99.90
24410;DHT22;12543;53.364;-1.504;2023-08-06T01:57:47;11.10;99.90
24410;DHT22;12543;53.364;-1.504;2023-08-06T02:00:14;11.10;99.90
24410;DHT22;12543;53.364;-1.504;2023-08-06T02:02:41;11.10;99.90
24410;DHT22;12543;53.364;-1.504;2023-08-06T02:05:09;11.10;99.90
24410;DHT22;12543;53.364;-1.504;2023-08-06T02:07:39;11.20;99.90
24410;DHT22;12543;53.364;-1.504;2023-08-06T02:10:06;11.10;99.90
24410;DHT22;12543;53.364;-1.504;2023-08-06T02:12:34;11.20;99.90
24410;DHT22;12543;53.364;-1.504;2023-08-06T02:15:01;11.10;99.90
24410;DHT22;12543;53.364;-1.504;2023-08-06T02:17:28;11.10;99.90
24410;DHT22;12543;53.364;-1.504;2023-08-06T02:19:55;11.10;99.90
24410;DHT22;12543;53.364;-1.504;2023-08-06T02:22:23;11.10;99.90
24410;DHT22;12543;53.364;-1.504;2023-08-06T02:24:50;11.10;99.90
24410;DHT22;12543;53.364;-1.504;2023-08-06T02:27:17;11.10;99.90
24410;DHT22;12543;53.364;-1.504;2023-08-06T02:29:44;11.10;99.90
24410;DHT22;12543;53.364;-1.504;2023-08-06T02:32:14;11.10;99.90
24410;DHT22;12543;53.364;-1.504;2023-08-06T02:34:41;11.10;99.90
24410;DHT22;12543;53.364;-1.504;2023-08-06T02:37:09;11.10;99.90
24410;DHT22;12543;53.364;-1.504;2023-08-06T02:39:38;11.10;99.90
24410;DHT22;12543;53.364;-1.504;2023-08-06T02:42:07;11.10;99.90
24410;DHT22;12543;53.364;-1.504;2023-08-06T02:44:35;11.10;99.90
24410;DHT22;12543;53.364;-1.504;2023-08-06T02:47:02;11.10;99.90
24410;DHT22;12543;53.364;-1.504;2023-08-06T02:49:29;11.10;99.90
24410;DHT22;12543;53.364;-1.504;2023-08-06T02:51:56;11.10;99.90
24410;DHT22;12543;53.364;-1.504;2023-08-06T02:54:24;11.10;99.90
24410;DHT22;12543;53.364;-1.504;2023-08-06T02:56:51;11.10;99.90
24410;DHT22;12543;53.364;-1.504;2023-08-06T02:59:27;11.10;99.90
24410;DHT22;12543;53.364;-1.504;2023-08-06T03:02:20;11.10;99.90
24410;DHT22;12543;53.364;-1.504;2023-08-06T03:05:16;11.10;99.90
24410;DHT22;12543;53.364;-1.504;2023-08-06T03:07:47;11.10;99.90
24410;DHT22;12543;53.364;-1.504;2023-08-06T03:10:21;11.00;99.90
24410;DHT22;12543;53.364;-1.504;2023-08-06T03:12:51;11.10;99.90
24410;DHT22;12543;53.364;-1.504;2023-08-06T03:15:19;11.00;99.90
24410;DHT22;12543;53.364;-1.504;2023-08-06T03:17:47;11.10;99.90
24410;DHT22;12543;53.364;-1.504;2023-08-06T03:20:17;11.00;99.90
24410;DHT22;12543;53.364;-1.504;2023-08-06T03:22:44;11.10;99.90
24410;DHT22;12543;53.364;-1.504;2023-08-06T03:25:12;11.10;99.90
24410;DHT22;12543;53.364;-1.504;2023-08-06T03:27:43;11.00;99.90
24410;DHT22;12543;53.364;-1.504;2023-08-06T03:30:12;11.00;99.90
24410;DHT22;12543;53.364;-1.504;2023-08-06T03:32:40;11.00;99.90
24410;DHT22;12543;53.364;-1.504;2023-08-06T03:35:08;11.00;99.90
24410;DHT22;12543;53.364;-1.504;2023-08-06T03:37:36;11.00;99.90
24410;DHT22;12543;53.364;-1.504;2023-08-06T03:40:03;11.00;99.90
24410;DHT22;12543;53.364;-1.504;2023-08-06T03:42:32;11.00;99.90
24410;DHT22;12543;53.364;-1.504;2023-08-06T03:44:59;11.00;99.90
24410;DHT22;12543;53.364;-1.504;2023-08-06T03:47:27;11.00;99.90
24410;DHT22;12543;53.364;-1.504;2023-08-06T03:49:54;11.00;99.90
24410;DHT22;12543;53.364;-1.504;2023-08-06T03:52:22;11.00;99.90
24410;DHT22;12543;53.364;-1.504;2023-08-06T03:54:49;11.00;99.90
24410;DHT22;12543;53.364;-1.504;2023-08-06T03:57:17;10.90;99.90
24410;DHT22;12543;53.364;-1.504;2023-08-06T03:59:45;11.00;99.90
24410;DHT22;12543;53.364;-1.504;2023-08-06T04:02:23;10.90;99.90
24410;DHT22;12543;53.364;-1.504;2023-08-06T04:04:50;10.90;99.90
24410;DHT22;12543;53.364;-1.504;2023-08-06T04:07:20;10.90;99.90
24410;DHT22;12543;53.364;-1.504;2023-08-06T04:10:06;10.90;99.90
24410;DHT22;12543;53.364;-1.504;2023-08-06T04:12:33;10.90;99.90
24410;DHT22;12543;53.364;-1.504;2023-08-06T04:15:04;10.90;99.90
24410;DHT22;12543;53.364;-1.504;2023-08-06T04:17:31;10.90;99.90
24410;DHT22;12543;53.364;-1.504;2023-08-06T04:19:59;10.90;99.90
24410;DHT22;12543;53.364;-1.504;2023-08-06T04:22:26;10.90;99.90
24410;DHT22;12543;53.364;-1.504;2023-08-06T04:24:53;10.90;99.90
24410;DHT22;12543;53.364;-1.504;2023-08-06T04:27:25;10.90;99.90
24410;DHT22;12543;53.364;-1.504;2023-08-06T04:29:59;10.90;99.90
24410;DHT22;12543;53.364;-1.504;2023-08-06T04:32:27;10.90;99.90
24410;DHT22;12543;53.364;-1.504;2023-08-06T04:34:55;10.90;99.90
24410;DHT22;12543;53.364;-1.504;2023-08-06T04:37:23;10.90;99.90
24410;DHT22;12543;53.364;-1.504;2023-08-06T04:39:50;10.90;99.90
24410;DHT22;12543;53.364;-1.504;2023-08-06T04:42:18;11.00;99.90
24410;DHT22;12543;53.364;-1.504;2023-08-06T04:44:47;10.90;99.90
24410;DHT22;12543;53.364;-1.504;2023-08-06T04:47:14;11.00;99.90
24410;DHT22;12543;53.364;-1.504;2023-08-06T04:49:42;11.00;99.90
24410;DHT22;12543;53.364;-1.504;2023-08-06T04:52:09;11.00;99.90
24410;DHT22;12543;53.364;-1.504;2023-08-06T04:54:36;11.00;99.90
24410;DHT22;12543;53.364;-1.504;2023-08-06T04:57:04;11.00;99.90
24410;DHT22;12543;53.364;-1.504;2023-08-06T04:59:31;11.00;99.90
24410;DHT22;12543;53.364;-1.504;2023-08-06T05:02:04;11.00;99.90
24410;DHT22;12543;53.364;-1.504;2023-08-06T05:04:40;11.10;99.90
24410;DHT22;12543;53.364;-1.504;2023-08-06T05:07:07;11.10;99.90
24410;DHT22;12543;53.364;-1.504;2023-08-06T05:09:35;11.10;99.90
24410;DHT22;12543;53.364;-1.504;2023-08-06T05:12:04;11.10;99.90
24410;DHT22;12543;53.364;-1.504;2023-08-06T05:14:32;11.10;99.90
24410;DHT22;12543;53.364;-1.504;2023-08-06T05:16:59;11.20;99.90
24410;DHT22;12543;53.364;-1.504;2023-08-06T05:19:32;11.20;99.90
24410;DHT22;12543;53.364;-1.504;2023-08-06T05:22:05;11.20;99.90
24410;DHT22;12543;53.364;-1.504;2023-08-06T05:24:33;11.20;99.90
24410;DHT22;12543;53.364;-1.504;2023-08-06T05:27:00;11.20;99.90
24410;DHT22;12543;53.364;-1.504;2023-08-06T05:29:27;11.30;99.90
24410;DHT22;12543;53.364;-1.504;2023-08-06T05:31:55;11.30;99.90
24410;DHT22;12543;53.364;-1.504;2023-08-06T05:34:23;11.30;99.90
24410;DHT22;12543;53.364;-1.504;2023-08-06T05:36:50;11.30;99.90
24410;DHT22;12543;53.364;-1.504;2023-08-06T05:39:17;11.30;99.90
24410;DHT22;12543;53.364;-1.504;2023-08-06T05:41:47;11.30;99.90
24410;DHT22;12543;53.364;-1.504;2023-08-06T05:44:14;11.30;99.90
24410;DHT22;12543;53.364;-1.504;2023-08-06T05:46:42;11.40;99.90
24410;DHT22;12543;53.364;-1.504;2023-08-06T05:49:09;11.40;99.90
24410;DHT22;12543;53.364;-1.504;2023-08-06T05:51:36;11.40;99.90
24410;DHT22;12543;53.364;-1.504;2023-08-06T05:54:06;11.40;99.90
24410;DHT22;12543;53.364;-1.504;2023-08-06T05:56:35;11.40;99.90
24410;DHT22;12543;53.364;-1.504;2023-08-06T05:59:02;11.40;99.90
24410;DHT22;12543;53.364;-1.504;2023-08-06T06:01:30;11.50;99.90
24410;DHT22;12543;53.364;-1.504;2023-08-06T06:03:59;11.50;99.90
24410;DHT22;12543;53.364;-1.504;2023-08-06T06:06:26;11.50;99.90
24410;DHT22;12543;53.364;-1.504;2023-08-06T06:08:53;11.50;99.90
24410;DHT22;12543;53.364;-1.504;2023-08-06T06:11:20;11.60;99.90
24410;DHT22;12543;53.364;-1.504;2023-08-06T06:13:52;11.60;99.90
24410;DHT22;12543;53.364;-1.504;2023-08-06T06:16:19;11.60;99.90
24410;DHT22;12543;53.364;-1.504;2023-08-06T06:18:47;11.70;99.90
24410;DHT22;12543;53.364;-1.504;2023-08-06T06:21:14;11.60;99.90
24410;DHT22;12543;53.364;-1.504;2023-08-06T06:23:41;11.70;99.90
24410;DHT22;12543;53.364;-1.504;2023-08-06T06:26:08;11.70;99.90
24410;DHT22;12543;53.364;-1.504;2023-08-06T06:28:39;11.70;99.90
24410;DHT22;12543;53.364;-1.504;2023-08-06T06:31:14;11.80;99.90
24410;DHT22;12543;53.364;-1.504;2023-08-06T06:33:41;11.80;99.90
24410;DHT22;12543;53.364;-1.504;2023-08-06T06:36:08;11.80;99.90
24410;DHT22;12543;53.364;-1.504;2023-08-06T06:38:36;11.80;99.90
24410;DHT22;12543;53.364;-1.504;2023-08-06T06:41:04;11.80;99.90
24410;DHT22;12543;53.364;-1.504;2023-08-06T06:43:31;11.90;99.90
24410;DHT22;12543;53.364;-1.504;2023-08-06T06:45:59;11.90;99.90
24410;DHT22;12543;53.364;-1.504;2023-08-06T06:48:28;11.90;99.90
24410;DHT22;12543;53.364;-1.504;2023-08-06T06:50:56;11.90;99.90
24410;DHT22;12543;53.364;-1.504;2023-08-06T06:53:23;12.00;99.90
24410;DHT22;12543;53.364;-1.504;2023-08-06T06:56:04;12.10;99.90
24410;DHT22;12543;53.364;-1.504;2023-08-06T06:58:32;12.10;99.90
24410;DHT22;12543;53.364;-1.504;2023-08-06T07:00:59;12.20;99.90
24410;DHT22;12543;53.364;-1.504;2023-08-06T07:03:27;12.20;99.90
24410;DHT22;12543;53.364;-1.504;2023-08-06T07:05:57;12.20;99.90
24410;DHT22;12543;53.364;-1.504;2023-08-06T07:08:27;12.30;99.90
24410;DHT22;12543;53.364;-1.504;2023-08-06T07:11:02;12.30;99.90
24410;DHT22;12543;53.364;-1.504;2023-08-06T07:13:30;12.30;99.90
24410;DHT22;12543;53.364;-1.504;2023-08-06T07:15:58;12.40;99.90
24410;DHT22;12543;53.364;-1.504;2023-08-06T07:18:25;12.40;99.90
24410;DHT22;12543;53.364;-1.504;2023-08-06T07:20:54;12.50;99.90
24410;DHT22;12543;53.364;-1.504;2023-08-06T07:23:23;12.50;99.90
24410;DHT22;12543;53.364;-1.504;2023-08-06T07:25:52;12.60;99.90
24410;DHT22;12543;53.364;-1.504;2023-08-06T07:28:19;12.60;99.90
24410;DHT22;12543;53.364;-1.504;2023-08-06T07:30:47;12.60;99.90
24410;DHT22;12543;53.364;-1.504;2023-08-06T07:33:14;12.60;99.90
24410;DHT22;12543;53.364;-1.504;2023-08-06T07:35:41;12.70;99.90
24410;DHT22;12543;53.364;-1.504;2023-08-06T07:38:10;12.70;99.90
24410;DHT22;12543;53.364;-1.504;2023-08-06T07:40:38;12.70;99.90
24410;DHT22;12543;53.364;-1.504;2023-08-06T07:43:05;12.70;99.90
24410;DHT22;12543;53.364;-1.504;2023-08-06T07:45:35;12.70;99.90
24410;DHT22;12543;53.364;-1.504;2023-08-06T07:48:03;12.80;99.90
24410;DHT22;12543;53.364;-1.504;2023-08-06T07:50:31;12.80;99.90
24410;DHT22;12543;53.364;-1.504;2023-08-06T07:52:58;12.80;99.90
24410;DHT22;12543;53.364;-1.504;2023-08-06T07:55:26;12.90;99.90
24410;DHT22;12543;53.364;-1.504;2023-08-06T07:57:54;13.00;99.90
24410;DHT22;12543;53.364;-1.504;2023-08-06T08:00:21;13.00;99.90
24410;DHT22;12543;53.364;-1.504;2023-08-06T08:02:49;13.10;99.90
24410;DHT22;12543;53.364;-1.504;2023-08-06T08:05:16;13.20;99.90
24410;DHT22;12543;53.364;-1.504;2023-08-06T08:07:43;13.20;99.90
24410;DHT22;12543;53.364;-1.504;2023-08-06T08:10:11;13.30;99.90
24410;DHT22;12543;53.364;-1.504;2023-08-06T08:12:39;13.40;99.90
24410;DHT22;12543;53.364;-1.504;2023-08-06T08:15:06;13.40;99.90
24410;DHT22;12543;53.364;-1.504;2023-08-06T08:17:34;13.50;99.90
24410;DHT22;12543;53.364;-1.504;2023-08-06T08:20:06;13.50;99.90
24410;DHT22;12543;53.364;-1.504;2023-08-06T08:22:41;13.60;99.90
24410;DHT22;12543;53.364;-1.504;2023-08-06T08:25:08;13.60;99.90
24410;DHT22;12543;53.364;-1.504;2023-08-06T08:27:35;13.70;99.90
24410;DHT22;12543;53.364;-1.504;2023-08-06T08:30:02;13.70;99.90
24410;DHT22;12543;53.364;-1.504;2023-08-06T08:32:30;13.70;99.90
24410;DHT22;12543;53.364;-1.504;2023-08-06T08:34:57;13.80;99.90
24410;DHT22;12543;53.364;-1.504;2023-08-06T08:37:24;13.80;99.90
24410;DHT22;12543;53.364;-1.504;2023-08-06T08:39:52;13.80;99.90
24410;DHT22;12543;53.364;-1.504;2023-08-06T08:42:19;13.80;99.90
24410;DHT22;12543;53.364;-1.504;2023-08-06T08:44:47;13.80;99.90
24410;DHT22;12543;53.364;-1.504;2023-08-06T08:47:14;13.80;99.90
24410;DHT22;12543;53.364;-1.504;2023-08-06T08:49:43;13.90;99.90
24410;DHT22;12543;53.364;-1.504;2023-08-06T08:52:15;13.90;99.90
24410;DHT22;12543;53.364;-1.504;2023-08-06T08:54:44;13.90;99.90
24410;DHT22;12543;53.364;-1.504;2023-08-06T08:57:13;14.00;99.90
24410;DHT22;12543;53.364;-1.504;2023-08-06T08:59:40;14.10;99.90
24410;DHT22;12543;53.364;-1.504;2023-08-06T09:02:11;14.10;99.90
24410;DHT22;12543;53.364;-1.504;2023-08-06T09:04:41;14.30;99.90
24410;DHT22;12543;53.364;-1.504;2023-08-06T09:07:11;14.30;99.90
24410;DHT22;12543;53.364;-1.504;2023-08-06T09:09:41;14.50;99.90
24410;DHT22;12543;53.364;-1.504;2023-08-06T09:12:15;14.60;99.90
24410;DHT22;12543;53.364;-1.504;2023-08-06T09:14:42;14.80;99.90
24410;DHT22;12543;53.364;-1.504;2023-08-06T09:17:10;14.90;99.90
24410;DHT22;12543;53.364;-1.504;2023-08-06T09:19:37;15.00;99.90
24410;DHT22;12543;53.364;-1.504;2023-08-06T09:22:13;15.10;99.90
24410;DHT22;12543;53.364;-1.504;2023-08-06T09:24:44;15.20;99.90
24410;DHT22;12543;53.364;-1.504;2023-08-06T09:27:15;15.30;99.90
24410;DHT22;12543;53.364;-1.504;2023-08-06T09:29:46;15.40;99.90
24410;DHT22;12543;53.364;-1.504;2023-08-06T09:32:14;15.60;99.90
24410;DHT22;12543;53.364;-1.504;2023-08-06T09:34:46;15.70;99.90
24410;DHT22;12543;53.364;-1.504;2023-08-06T09:37:13;15.80;99.90
24410;DHT22;12543;53.364;-1.504;2023-08-06T09:39:40;16.00;99.90
24410;DHT22;12543;53.364;-1.504;2023-08-06T09:42:10;16.10;99.90
24410;DHT22;12543;53.364;-1.504;2023-08-06T09:44:40;16.30;99.90
24410;DHT22;12543;53.364;-1.504;2023-08-06T09:47:08;16.50;99.90
24410;DHT22;12543;53.364;-1.504;2023-08-06T09:52:03;16.90;99.90
24410;DHT22;12543;53.364;-1.504;2023-08-06T09:54:32;17.20;99.90
24410;DHT22;12543;53.364;-1.504;2023-08-06T09:57:02;17.60;99.90
24410;DHT22;12543;53.364;-1.504;2023-08-06T09:59:32;18.00;99.90
24410;DHT22;12543;53.364;-1.504;2023-08-06T10:01:59;18.20;99.90
24410;DHT22;12543;53.364;-1.504;2023-08-06T10:04:29;18.40;99.90
24410;DHT22;12543;53.364;-1.504;2023-08-06T10:07:07;18.70;99.90
24410;DHT22;12543;53.364;-1.504;2023-08-06T10:09:35;19.00;99.90
24410;DHT22;12543;53.364;-1.504;2023-08-06T10:12:03;19.10;99.90
24410;DHT22;12543;53.364;-1.504;2023-08-06T10:14:35;19.30;99.90
24410;DHT22;12543;53.364;-1.504;2023-08-06T10:17:04;19.40;99.90
24410;DHT22;12543;53.364;-1.504;2023-08-06T10:19:32;19.40;99.90
24410;DHT22;12543;53.364;-1.504;2023-08-06T10:22:11;19.40;99.90
24410;DHT22;12543;53.364;-1.504;2023-08-06T10:30:32;19.20;99.90
24410;DHT22;12543;53.364;-1.504;2023-08-06T10:33:00;19.30;99.90
24410;DHT22;12543;53.364;-1.504;2023-08-06T10:38:17;19.30;99.90
24410;DHT22;12543;53.364;-1.504;2023-08-06T10:43:34;19.50;99.90
24410;DHT22;12543;53.364;-1.504;2023-08-06T10:46:03;19.60;99.90
24410;DHT22;12543;53.364;-1.504;2023-08-06T10:48:41;19.70;99.90
24410;DHT22;12543;53.364;-1.504;2023-08-06T10:51:10;19.90;99.90
24410;DHT22;12543;53.364;-1.504;2023-08-06T10:53:38;20.10;99.90
24410;DHT22;12543;53.364;-1.504;2023-08-06T10:56:22;20.40;99.90
24410;DHT22;12543;53.364;-1.504;2023-08-06T10:58:51;20.60;99.90
24410;DHT22;12543;53.364;-1.504;2023-08-06T11:01:22;21.00;99.90
24410;DHT22;12543;53.364;-1.504;2023-08-06T11:03:50;21.20;99.90
24410;DHT22;12543;53.364;-1.504;2023-08-06T11:06:21;21.30;99.90
24410;DHT22;12543;53.364;-1.504;2023-08-06T11:08:50;21.30;99.90
24410;DHT22;12543;53.364;-1.504;2023-08-06T11:11:17;21.40;99.90
24410;DHT22;12543;53.364;-1.504;2023-08-06T11:13:49;21.30;99.90
24410;DHT22;12543;53.364;-1.504;2023-08-06T11:16:19;21.30;99.90
24410;DHT22;12543;53.364;-1.504;2023-08-06T11:18:46;21.20;99.90
24410;DHT22;12543;53.364;-1.504;2023-08-06T11:21:14;21.20;99.90
24410;DHT22;12543;53.364;-1.504;2023-08-06T11:23:45;21.30;99.90
24410;DHT22;12543;53.364;-1.504;2023-08-06T11:26:18;21.30;99.90
24410;DHT22;12543;53.364;-1.504;2023-08-06T11:28:45;21.40;99.90
24410;DHT22;12543;53.364;-1.504;2023-08-06T11:31:23;21.50;99.90
24410;DHT22;12543;53.364;-1.504;2023-08-06T11:33:51;21.50;99.90
24410;DHT22;12543;53.364;-1.504;2023-08-06T11:36:29;21.50;99.90
24410;DHT22;12543;53.364;-1.504;2023-08-06T11:38:58;21.40;99.90
24410;DHT22;12543;53.364;-1.504;2023-08-06T11:41:30;21.50;99.90
24410;DHT22;12543;53.364;-1.504;2023-08-06T11:44:00;21.40;99.90
24410;DHT22;12543;53.364;-1.504;2023-08-06T11:46:28;21.50;99.90
24410;DHT22;12543;53.364;-1.504;2023-08-06T11:48:56;21.50;99.90
24410;DHT22;12543;53.364;-1.504;2023-08-06T11:51:24;21.50;99.90
24410;DHT22;12543;53.364;-1.504;2023-08-06T11:53:59;21.50;99.90
24410;DHT22;12543;53.364;-1.504;2023-08-06T11:56:27;21.40;99.90
24410;DHT22;12543;53.364;-1.504;2023-08-06T11:58:55;21.30;99.90
24410;DHT22;12543;53.364;-1.504;2023-08-06T12:01:22;21.30;99.90
24410;DHT22;12543;53.364;-1.504;2023-08-06T12:03:49;21.20;99.90
24410;DHT22;12543;53.364;-1.504;2023-08-06T12:06:17;21.00;99.90
24410;DHT22;12543;53.364;-1.504;2023-08-06T12:08:44;21.10;99.90
24410;DHT22;12543;53.364;-1.504;2023-08-06T12:11:11;21.40;99.90
24410;DHT22;12543;53.364;-1.504;2023-08-06T12:13:38;21.70;99.90
24410;DHT22;12543;53.364;-1.504;2023-08-06T12:16:06;22.10;99.90
24410;DHT22;12543;53.364;-1.504;2023-08-06T12:18:33;22.40;99.90
24410;DHT22;12543;53.364;-1.504;2023-08-06T12:21:00;22.60;99.90
24410;DHT22;12543;53.364;-1.504;2023-08-06T12:23:27;22.80;99.90
24410;DHT22;12543;53.364;-1.504;2023-08-06T12:25:56;22.90;99.90
24410;DHT22;12543;53.364;-1.504;2023-08-06T12:28:24;22.90;99.90
24410;DHT22;12543;53.364;-1.504;2023-08-06T12:30:51;22.90;99.90
24410;DHT22;12543;53.364;-1.504;2023-08-06T12:33:21;22.90;99.90
24410;DHT22;12543;53.364;-1.504;2023-08-06T12:35:48;22.80;99.90
24410;DHT22;12543;53.364;-1.504;2023-08-06T12:38:17;22.80;99.90
24410;DHT22;12543;53.364;-1.504;2023-08-06T12:40:44;22.90;99.90
24410;DHT22;12543;53.364;-1.504;2023-08-06T12:43:12;22.90;99.90
24410;DHT22;12543;53.364;-1.504;2023-08-06T12:45:40;23.00;99.90
24410;DHT22;12543;53.364;-1.504;2023-08-06T12:48:07;23.10;99.90
24410;DHT22;12543;53.364;-1.504;2023-08-06T12:50:35;23.20;99.90
24410;DHT22;12543;53.364;-1.504;2023-08-06T12:53:02;23.10;99.90
24410;DHT22;12543;53.364;-1.504;2023-08-06T12:55:31;23.10;99.90
24410;DHT22;12543;53.364;-1.504;2023-08-06T12:57:59;23.10;99.90
24410;DHT22;12543;53.364;-1.504;2023-08-06T13:00:26;22.90;99.90
24410;DHT22;12543;53.364;-1.504;2023-08-06T13:02:54;22.70;99.90
24410;DHT22;12543;53.364;-1.504;2023-08-06T13:05:21;22.50;99.90
24410;DHT22;12543;53.364;-1.504;2023-08-06T13:07:49;22.40;99.90
24410;DHT22;12543;53.364;-1.504;2023-08-06T13:10:20;22.30;99.90
24410;DHT22;12543;53.364;-1.504;2023-08-06T13:12:58;22.20;99.90
24410;DHT22;12543;53.364;-1.504;2023-08-06T13:15:26;22.20;99.90
24410;DHT22;12543;53.364;-1.504;2023-08-06T13:17:53;22.00;99.90
24410;DHT22;12543;53.364;-1.504;2023-08-06T13:20:20;21.90;99.90
24410;DHT22;12543;53.364;-1.504;2023-08-06T13:22:47;21.70;99.90
24410;DHT22;12543;53.364;-1.504;2023-08-06T13:25:18;21.50;99.90
24410;DHT22;12543;53.364;-1.504;2023-08-06T13:27:48;21.30;99.90
24410;DHT22;12543;53.364;-1.504;2023-08-06T13:30:20;21.00;99.90
24410;DHT22;12543;53.364;-1.504;2023-08-06T13:32:47;20.80;99.90
24410;DHT22;12543;53.364;-1.504;2023-08-06T13:35:15;20.60;99.90
24410;DHT22;12543;53.364;-1.504;2023-08-06T13:37:42;20.50;99.90
24410;DHT22;12543;53.364;-1.504;2023-08-06T13:40:09;20.30;99.90
24410;DHT22;12543;53.364;-1.504;2023-08-06T13:42:37;20.20;99.90
24410;DHT22;12543;53.364;-1.504;2023-08-06T13:45:05;20.10;99.90
24410;DHT22;12543;53.364;-1.504;2023-08-06T13:47:32;19.90;99.90
24410;DHT22;12543;53.364;-1.504;2023-08-06T13:49:59;19.80;99.90
24410;DHT22;12543;53.364;-1.504;2023-08-06T13:52:27;19.70;99.90
24410;DHT22;12543;53.364;-1.504;2023-08-06T13:54:54;19.60;99.90
24410;DHT22;12543;53.364;-1.504;2023-08-06T13:57:21;19.60;99.90
24410;DHT22;12543;53.364;-1.504;2023-08-06T13:59:48;19.40;99.90
24410;DHT22;12543;53.364;-1.504;2023-08-06T14:02:15;19.30;99.90
24410;DHT22;12543;53.364;-1.504;2023-08-06T14:04:42;19.20;99.90
24410;DHT22;12543;53.364;-1.504;2023-08-06T14:07:09;19.10;99.90
24410;DHT22;12543;53.364;-1.504;2023-08-06T14:09:37;18.90;99.90
24410;DHT22;12543;53.364;-1.504;2023-08-06T14:12:04;18.90;99.90
24410;DHT22;12543;53.364;-1.504;2023-08-06T14:14:32;18.80;99.90
24410;DHT22;12543;53.364;-1.504;2023-08-06T14:17:00;18.80;99.90
24410;DHT22;12543;53.364;-1.504;2023-08-06T14:19:27;18.80;99.90
24410;DHT22;12543;53.364;-1.504;2023-08-06T14:21:56;18.80;99.90
24410;DHT22;12543;53.364;-1.504;2023-08-06T14:24:24;18.80;99.90
24410;DHT22;12543;53.364;-1.504;2023-08-06T14:26:51;18.70;99.90
24410;DHT22;12543;53.364;-1.504;2023-08-06T14:29:19;18.70;99.90
24410;DHT22;12543;53.364;-1.504;2023-08-06T14:31:46;18.70;99.90
24410;DHT22;12543;53.364;-1.504;2023-08-06T14:34:20;18.60;99.90
24410;DHT22;12543;53.364;-1.504;2023-08-06T14:36:47;18.50;99.90
24410;DHT22;12543;53.364;-1.504;2023-08-06T14:39:15;18.50;99.90
24410;DHT22;12543;53.364;-1.504;2023-08-06T14:41:42;18.40;99.90
24410;DHT22;12543;53.364;-1.504;2023-08-06T14:44:09;18.40;99.90
24410;DHT22;12543;53.364;-1.504;2023-08-06T14:46:36;18.30;99.90
24410;DHT22;12543;53.364;-1.504;2023-08-06T14:49:04;18.30;99.90
24410;DHT22;12543;53.364;-1.504;2023-08-06T14:51:31;18.20;99.90
24410;DHT22;12543;53.364;-1.504;2023-08-06T14:53:58;18.20;99.90
24410;DHT22;12543;53.364;-1.504;2023-08-06T14:56:25;18.10;99.90
24410;DHT22;12543;53.364;-1.504;2023-08-06T14:58:52;18.10;99.90
24410;DHT22;12543;53.364;-1.504;2023-08-06T15:01:19;18.10;99.90
24410;DHT22;12543;53.364;-1.504;2023-08-06T15:03:46;18.10;99.90
24410;DHT22;12543;53.364;-1.504;2023-08-06T15:06:13;18.10;99.90
24410;DHT22;12543;53.364;-1.504;2023-08-06T15:08:40;18.10;99.90
24410;DHT22;12543;53.364;-1.504;2023-08-06T15:11:10;18.10;99.90
24410;DHT22;12543;53.364;-1.504;2023-08-06T15:13:38;18.00;99.90
24410;DHT22;12543;53.364;-1.504;2023-08-06T15:16:05;18.00;99.90
24410;DHT22;12543;53.364;-1.504;2023-08-06T15:18:32;17.90;99.90
24410;DHT22;12543;53.364;-1.504;2023-08-06T15:20:59;17.90;99.90
24410;DHT22;12543;53.364;-1.504;2023-08-06T15:23:27;17.80;99.90
24410;DHT22;12543;53.364;-1.504;2023-08-06T15:25:54;17.80;99.90
24410;DHT22;12543;53.364;-1.504;2023-08-06T15:28:22;17.70;99.90
24410;DHT22;12543;53.364;-1.504;2023-08-06T15:30:50;17.70;99.90
24410;DHT22;12543;53.364;-1.504;2023-08-06T15:33:18;17.80;99.90
24410;DHT22;12543;53.364;-1.504;2023-08-06T15:35:45;17.80;99.90
24410;DHT22;12543;53.364;-1.504;2023-08-06T15:38:14;17.90;99.90
24410;DHT22;12543;53.364;-1.504;2023-08-06T15:40:42;17.90;99.90
24410;DHT22;12543;53.364;-1.504;2023-08-06T15:43:17;17.90;99.90